Flight Track Log - Related Links

Times and Time Zones

All times are in EST time to prevent confusion due to time zone crossing. See the EJA929 flight status page for this flight to view local times or setup timezone preferences in your user account.


Time Position Orientation Groundspeed Altitude Reporting Facility
EST Latitude Longitude Course Direction KTS MPH feet Rate Location/Type
Wed 02:25:59 PM 35.5244 -97.6453 208° Southwest 162 186 1,800  Level Fort Worth Center
Wed 02:26:35 PM 35.4931 -97.6661 208° Southwest 219 252 3,000 3,429 Climbing Fort Worth Center
Wed 02:27:02 PM 35.4686 -97.6819 208° Southwest 222 255 5,400 3,541 Climbing Fort Worth Center
Wed 02:27:36 PM 35.4547 -97.7189 245° Southwest 238 274 6,600 2,806 Climbing Fort Worth Center
Wed 02:28:04 PM 35.4564 -97.7575 273° West 243 280 8,300 2,800 Climbing Fort Worth Center
Wed 02:29:06 PM 35.4625 -97.8403 275° West 260 299 10,800 1,824 Climbing Fort Worth Center
Wed 02:30:09 PM 35.4769 -97.9494 279° West 304 350 12,100 1,872 Climbing Fort Worth Center
Wed 02:31:11 PM 35.5003 -98.0869 282° West 333 383 14,700 2,371 Climbing Fort Worth Center
Wed 02:32:13 PM 35.5208 -98.2069 282° West 347 399 17,000 2,226 Climbing Fort Worth Center
Wed 02:33:15 PM 35.5422 -98.3247 283° West 354 407 19,300 1,645 Climbing Fort Worth Center
Wed 02:34:17 PM 35.5983 -98.4275 304° West 360 414 20,400 1,548 Climbing Fort Worth Center
Wed 02:35:19 PM 35.6533 -98.5353 302° West 369 425 22,500 2,177 Climbing Fort Worth Center
Wed 02:36:21 PM 35.7192 -98.6639 302° West 371 427 24,900 1,836 Climbing Fort Worth Center
Wed 02:37:33 PM 35.7764 -98.7747 302° West 379 436 26,600 1,676 Climbing Kansas City Center
Wed 02:38:37 PM 35.8461 -98.9142 302° West 394 453 28,700 1,968 Climbing Kansas City Center
Wed 02:39:38 PM 35.9058 -99.0308 302° West 400 460 30,700 2,410 Climbing Kansas City Center
Wed 02:40:39 PM 35.9647 -99.1481 302° West 403 464 33,600 2,903 Climbing Kansas City Center
Wed 02:41:42 PM 36.0200 -99.2578 302° West 384 442 36,700 1,645 Climbing Kansas City Center
Wed 02:42:43 PM 36.0786 -99.3731 302° West 385 443 37,000 242 Climbing Kansas City Center
Wed 02:43:46 PM 36.1447 -99.5072 301° West 405 466 37,200 1,210 Climbing Kansas City Center
Wed 02:44:47 PM 36.2033 -99.6214 302° West 409 471 39,500 1,344 Climbing Kansas City Center
Wed 02:45:51 PM 36.2633 -99.7469 301° West 384 442 40,000 240 Climbing Kansas City Center
Wed 02:46:52 PM 36.3172 -99.8561 302° West 384 442 40,000  Level Kansas City Center
Wed 02:47:53 PM 36.3819 -99.9867 302° West 394 453 40,000  Level Kansas City Center
Wed 02:48:56 PM 36.4369 -100.1017 301° West 400 460 40,000  Level Kansas City Center
Wed 02:49:58 PM 36.5039 -100.2353 302° West 406 467 40,000  Level Kansas City Center
Wed 02:51:01 PM 36.5603 -100.3533 301° West 411 473 40,000  Level Kansas City Center
Wed 02:52:02 PM 36.6172 -100.4711 301° West 413 475 40,000  Level Kansas City Center
Wed 02:53:05 PM 36.6833 -100.6083 301° West 413 475 40,000  Level Kansas City Center
Wed 02:54:06 PM 36.7400 -100.7236 302° West 410 472 40,000  Level Kansas City Center
Wed 02:55:09 PM 36.8036 -100.8575 301° West 404 465 40,000  Level Kansas City Center
Wed 02:56:10 PM 36.8581 -100.9717 301° West 401 461 40,000  Level Kansas City Center
Wed 02:57:14 PM 36.9208 -101.1036 301° West 396 456 40,000  Level Kansas City Center
Wed 02:58:14 PM 36.9758 -101.2172 301° West 396 456 40,000  Level Kansas City Center
Wed 02:59:18 PM 37.0381 -101.3503 300° West 397 457 40,000  Level Kansas City Center
Wed 03:00:18 PM 37.0928 -101.4678 300° West 401 461 40,000  Level Kansas City Center
Wed 03:01:19 PM 37.1583 -101.6072 301° West 410 472 40,000  Level Kansas City Center
Wed 03:02:23 PM 37.2156 -101.7308 300° West 420 483 40,000  Level Kansas City Center
Wed 03:03:24 PM 37.2733 -101.8544 300° West 425 489 40,000  Level Kansas City Center
Wed 03:04:28 PM 37.3400 -101.9994 300° West 427 491 40,000  Level Kansas City Center
Wed 03:05:29 PM 37.3964 -102.1225 300° West 425 489 40,000  Level Kansas City Center
Wed 03:06:30 PM 37.4633 -102.2658 301° West 424 488 40,000  Level Kansas City Center
Wed 03:07:34 PM 37.5464 -102.3706 315° West 446 513 40,000  Level Kansas City Center
Wed 03:08:34 PM 37.6544 -102.4786 322° Northwest 446 513 40,000  Level Kansas City Center
Wed 03:09:14 PM 37.7081 -102.5328 321° Northwest 449 517 40,000  Level Denver Center
Wed 03:10:15 PM 37.8150 -102.6428 321° Northwest 446 513 40,000  Level Denver Center
Wed 03:11:17 PM 37.9067 -102.7367 321° Northwest 444 511 40,000  Level Denver Center
Wed 03:12:19 PM 38.0156 -102.8464 322° Northwest 448 516 40,000  Level Denver Center
Wed 03:13:21 PM 38.1175 -102.9528 321° Northwest 445 512 40,000  Level Denver Center
Wed 03:14:23 PM 38.2114 -103.0494 321° Northwest 451 519 40,000  Level Denver Center
Wed 03:15:25 PM 38.3200 -103.1614 321° Northwest 450 518 40,000  Level Denver Center
Wed 03:16:27 PM 38.4147 -103.2594 321° Northwest 455 524 40,000  Level Denver Center
Wed 03:17:29 PM 38.5236 -103.3736 321° Northwest 454 522 40,000  Level Denver Center
Wed 03:18:31 PM 38.6214 -103.4767 321° Northwest 458 527 40,000 -435 Level Denver Center
Wed 03:19:33 PM 38.7167 -103.5756 321° Northwest 460 529 39,100 -968 Descending Denver Center
Wed 03:20:35 PM 38.8292 -103.6958 320° Northwest 470 541 38,000 -1,113 Descending Denver Center
Wed 03:21:37 PM 38.9136 -103.7842 321° Northwest 434 499 36,800 -1,403 Descending Denver Center
Wed 03:22:39 PM 39.0014 -103.8803 320° Northwest 417 480 35,100 -1,355 Descending Denver Center
Wed 03:23:41 PM 39.1142 -103.9992 321° Northwest 437 503 34,000 -537 Descending Denver Center
Wed 03:24:42 PM 39.2094 -104.1014 320° Northwest 445 512 34,000  Level Denver Center
Wed 03:25:44 PM 39.3067 -104.2044 321° Northwest 452 520 34,000  Level Denver Center
Wed 03:26:46 PM 39.4036 -104.3100 320° Northwest 456 525 34,000 -242 Level Denver Center
Wed 03:27:48 PM 39.5000 -104.4139 320° Northwest 456 525 33,500 -726 Descending Denver Center
Wed 03:28:50 PM 39.5928 -104.5147 320° Northwest 444 511 32,500 -1,065 Descending Denver Center
Wed 03:29:52 PM 39.6747 -104.6597 306° West 434 499 31,300 -1,065 Descending Denver Center
Wed 03:30:54 PM 39.6719 -104.8072 269° West 430 495 30,300 -968 Descending Denver Center
Wed 03:31:56 PM 39.6567 -104.9603 263° West 434 499 29,300 -1,065 Descending Denver Center
Wed 03:32:58 PM 39.6364 -105.1419 262° West 429 494 28,100 -1,073 Descending Denver Center
Wed 03:33:59 PM 39.6206 -105.2933 262° West 426 490 27,100 -927 Descending Denver Center
Wed 03:35:01 PM 39.6039 -105.4464 262° West 430 495 26,200 -1,016 Descending Denver Center
Wed 03:36:03 PM 39.5875 -105.5969 262° West 425 489 25,000 -1,065 Descending Denver Center
Wed 03:37:05 PM 39.5714 -105.7431 262° West 414 476 24,000 -484 Descending Denver Center
Wed 03:38:07 PM 39.5553 -105.8886 262° West 409 471 24,000  Level Denver Center
Wed 03:39:09 PM 39.5400 -106.0319 262° West 404 465 24,000 -341 Level Denver Center
Wed 03:40:10 PM 39.5217 -106.1856 261° West 401 461 23,300 -976 Descending Denver Center
Wed 03:41:12 PM 39.5061 -106.3219 262° West 385 443 22,000 -1,161 Descending Denver Center
Wed 03:42:14 PM 39.4906 -106.4611 262° West 390 449 20,900 -1,258 Descending Denver Center
Wed 03:43:16 PM 39.4708 -106.6283 261° West 387 445 19,400 -1,171 Descending Denver Center
Wed 03:44:17 PM 39.4578 -106.7361 261° West 382 440 18,500 -1,306 Descending Denver Center
Wed 03:45:20 PM 39.4450 -106.9092 265° West 381 438 16,700 -1,452 Descending Denver Center
Wed 03:46:21 PM 39.4625 -107.0206 282° West 332 382 15,500 -1,171 Descending Denver Center
Wed 03:47:23 PM 39.4564 -107.1156 265° West 283 326 14,300 -1,210 Descending Denver Center
Wed 03:48:25 PM 39.5003 -107.2108 301° West 282 325 13,000 -774 Descending Denver Center
Wed 03:49:27 PM 39.5372 -107.3003 298° West 290 334 12,700 -844 Descending Denver Center
Wed 03:50:40 PM 39.5328 -107.4017 267° West 252 290 11,100 -1,315 Descending Denver Center

Login

Don't have an account? Register now (free) for customized features, flight alerts, and more!